Time;durP1;ratioP1;P1;durP2;ratioP2;P2;SDS_P1;SDS_P2;PMS_P1;PMS_P2;Temp;Humidity;BMP_temperature;BMP_pressure;BME280_temperature;BME280_humidity;BME280_pressure;Samples;Min_cycle;Max_cycle;Signal;HPM_P1;HPM_P2
2024/03/11 00:02:04;;;;;;;25.70;10.40;;;;;;;;;;5088020;28;20032;-57
2024/03/11 00:04:30;;;;;;;22.83;10.88;;;;;;;;;;5087970;28;20032;-56
2024/03/11 00:06:59;;;;;;;23.35;11.43;;;;;;;;;;5079390;28;20100;-56
2024/03/11 00:09:28;;;;;;;25.52;11.45;;;;;;;;;;5092164;28;20034;-56
2024/03/11 00:11:59;;;;;;;23.77;11.35;;;;;;;;;;5086687;28;20071;-57
2024/03/11 00:14:26;;;;;;;22.33;11.02;;;;;;;;;;5091601;28;20103;-56
2024/03/11 00:16:59;;;;;;;25.73;10.60;;;;;;;;;;5074938;28;20111;-57
2024/03/11 00:19:25;;;;;;;24.70;10.87;;;;;;;;;;5090560;28;20052;-58
2024/03/11 00:21:55;;;;;;;21.52;11.80;;;;;;;;;;5091795;28;20107;-59
2024/03/11 00:24:22;;;;;;;25.25;10.85;;;;;;;;;;5091544;28;20097;-59
2024/03/11 00:26:49;;;;;;;25.65;10.85;;;;;;;;;;5092083;28;20396;-55
2024/03/11 00:29:15;;;;;;;23.17;11.52;;;;;;;;;;5092143;28;20035;-52
2024/03/11 00:31:42;;;;;;;21.73;10.65;;;;;;;;;;5089844;28;20032;-55
2024/03/11 00:34:08;;;;;;;22.42;10.55;;;;;;;;;;5092038;28;20119;-55
2024/03/11 00:36:34;;;;;;;18.65;10.20;;;;;;;;;;5091881;28;20384;-55
2024/03/11 00:39:01;;;;;;;21.70;9.55;;;;;;;;;;5089008;28;20043;-54
2024/03/11 00:41:27;;;;;;;23.50;10.80;;;;;;;;;;5095768;28;20028;-53
2024/03/11 00:43:53;;;;;;;23.83;11.07;;;;;;;;;;5095566;28;20039;-53
2024/03/11 00:46:20;;;;;;;21.02;10.50;;;;;;;;;;5095280;28;20034;-54
2024/03/11 00:48:47;;;;;;;21.00;10.13;;;;;;;;;;5095845;28;20036;-54
2024/03/11 00:51:14;;;;;;;22.20;11.32;;;;;;;;;;5095949;28;20081;-55
2024/03/11 00:53:40;;;;;;;24.05;11.25;;;;;;;;;;5095408;28;20035;-56
2024/03/11 00:56:06;;;;;;;30.98;11.88;;;;;;;;;;5092277;28;20036;-54
2024/03/11 00:58:34;;;;;;;22.10;10.75;;;;;;;;;;5095645;28;20028;-54
2024/03/11 01:01:01;;;;;;;24.05;11.07;;;;;;;;;;5094035;28;20020;-55
2024/03/11 01:03:29;;;;;;;21.88;10.70;;;;;;;;;;5090192;28;20109;-58
2024/03/11 01:05:56;;;;;;;19.67;11.02;;;;;;;;;;5094661;28;20106;-57
2024/03/11 01:08:22;;;;;;;23.27;10.52;;;;;;;;;;5088203;28;20032;-53
2024/03/11 01:10:48;;;;;;;26.85;11.45;;;;;;;;;;5095557;28;20067;-55
2024/03/11 01:13:14;;;;;;;24.45;11.20;;;;;;;;;;5094857;28;20506;-54
2024/03/11 01:15:40;;;;;;;25.13;9.98;;;;;;;;;;5094061;28;20119;-53
2024/03/11 01:18:07;;;;;;;25.80;11.60;;;;;;;;;;5095214;28;20130;-54
2024/03/11 01:20:34;;;;;;;22.08;10.35;;;;;;;;;;5095187;28;20476;-55
2024/03/11 01:23:01;;;;;;;21.20;10.38;;;;;;;;;;5074917;28;20028;-55
2024/03/11 01:25:27;;;;;;;20.75;10.10;;;;;;;;;;5078719;28;20552;-54
2024/03/11 01:27:55;;;;;;;21.88;10.27;;;;;;;;;;5094793;28;20118;-56
2024/03/11 01:30:21;;;;;;;21.33;10.38;;;;;;;;;;5091091;28;20013;-56
2024/03/11 01:32:49;;;;;;;19.75;10.38;;;;;;;;;;5087938;28;20471;-56
2024/03/11 01:35:15;;;;;;;19.35;10.45;;;;;;;;;;5094834;28;20024;-56
2024/03/11 01:37:41;;;;;;;22.00;10.93;;;;;;;;;;5095012;28;20111;-58
2024/03/11 01:40:11;;;;;;;19.20;9.65;;;;;;;;;;5094490;28;20028;-58
2024/03/11 01:42:42;;;;;;;19.73;10.15;;;;;;;;;;5091942;28;20020;-58
2024/03/11 01:45:08;;;;;;;20.27;10.48;;;;;;;;;;5092823;28;20517;-58
2024/03/11 01:47:34;;;;;;;19.10;10.02;;;;;;;;;;5094999;28;20032;-58
2024/03/11 01:50:00;;;;;;;20.65;9.75;;;;;;;;;;5094381;28;20024;-58
2024/03/11 01:52:31;;;;;;;20.10;10.65;;;;;;;;;;5085868;28;20021;-58
2024/03/11 01:54:57;;;;;;;18.55;10.40;;;;;;;;;;5093486;28;20368;-59
2024/03/11 01:57:26;;;;;;;20.65;10.52;;;;;;;;;;5094617;28;20028;-59
2024/03/11 01:59:52;;;;;;;21.27;11.23;;;;;;;;;;5091850;28;20767;-59
2024/03/11 02:02:23;;;;;;;24.08;11.07;;;;;;;;;;5087242;28;20090;-59
2024/03/11 02:04:50;;;;;;;26.83;11.80;;;;;;;;;;5097607;28;20028;-59
2024/03/11 02:07:16;;;;;;;23.63;11.15;;;;;;;;;;5091748;28;20020;-59
2024/03/11 02:09:42;;;;;;;20.67;10.35;;;;;;;;;;5092336;28;20035;-59
2024/03/11 02:12:12;;;;;;;19.73;10.35;;;;;;;;;;5080080;28;20042;-59
2024/03/11 02:14:41;;;;;;;23.17;10.23;;;;;;;;;;5079687;28;20040;-58
2024/03/11 02:17:07;;;;;;;20.85;10.52;;;;;;;;;;5093044;28;20428;-59
2024/03/11 02:19:34;;;;;;;23.15;10.82;;;;;;;;;;5110351;28;20040;-59
2024/03/11 02:22:02;;;;;;;22.10;10.63;;;;;;;;;;5106055;28;20123;-58
2024/03/11 02:24:28;;;;;;;19.95;10.13;;;;;;;;;;5091851;28;20480;-57
2024/03/11 02:26:54;;;;;;;20.75;9.88;;;;;;;;;;5077878;28;20028;-59
2024/03/11 02:29:20;;;;;;;21.75;10.18;;;;;;;;;;5077360;28;20461;-59
2024/03/11 02:31:49;;;;;;;17.90;9.63;;;;;;;;;;5075768;28;20618;-58
2024/03/11 02:34:16;;;;;;;21.80;10.73;;;;;;;;;;5091199;28;20555;-59
2024/03/11 02:36:46;;;;;;;20.33;10.55;;;;;;;;;;5087067;28;20055;-59
2024/03/11 02:39:14;;;;;;;21.63;10.57;;;;;;;;;;5079904;28;20051;-59
2024/03/11 02:41:40;;;;;;;20.38;10.32;;;;;;;;;;5075586;28;20060;-59
2024/03/11 02:44:08;;;;;;;21.52;9.73;;;;;;;;;;5093099;28;20061;-58
2024/03/11 02:46:34;;;;;;;23.83;9.70;;;;;;;;;;5092622;28;20038;-59
2024/03/11 02:49:00;;;;;;;21.52;10.27;;;;;;;;;;5091919;28;20027;-59
2024/03/11 02:51:26;;;;;;;21.45;10.18;;;;;;;;;;5093367;28;20016;-59
2024/03/11 02:53:52;;;;;;;21.17;10.15;;;;;;;;;;5093128;28;20402;-59
2024/03/11 02:56:18;;;;;;;17.85;10.48;;;;;;;;;;5093508;28;20028;-59
2024/03/11 02:58:44;;;;;;;19.88;9.70;;;;;;;;;;5103036;28;20106;-59
2024/03/11 03:01:13;;;;;;;22.35;10.55;;;;;;;;;;5094539;28;20488;-59
2024/03/11 03:03:39;;;;;;;23.33;10.45;;;;;;;;;;5099133;28;20729;-59
2024/03/11 03:06:06;;;;;;;24.35;10.90;;;;;;;;;;5088207;28;20028;-59
2024/03/11 03:08:32;;;;;;;19.17;10.02;;;;;;;;;;5089404;28;20503;-59
2024/03/11 03:11:02;;;;;;;18.75;10.02;;;;;;;;;;5093669;28;20028;-59
2024/03/11 03:13:29;;;;;;;23.33;10.73;;;;;;;;;;5092477;28;20028;-59
2024/03/11 03:15:56;;;;;;;20.13;10.68;;;;;;;;;;5091600;28;20039;-59
2024/03/11 03:18:23;;;;;;;20.35;10.50;;;;;;;;;;5080598;28;20507;-51
2024/03/11 03:20:49;;;;;;;23.10;10.05;;;;;;;;;;5092647;28;20027;-53
2024/03/11 03:23:17;;;;;;;17.40;8.98;;;;;;;;;;5092629;28;20095;-55
2024/03/11 03:25:43;;;;;;;18.30;9.52;;;;;;;;;;5090067;28;20035;-54
2024/03/11 03:28:09;;;;;;;22.10;10.45;;;;;;;;;;5085341;28;20042;-54
2024/03/11 03:30:35;;;;;;;22.98;10.13;;;;;;;;;;5092670;28;20050;-55
2024/03/11 03:33:04;;;;;;;15.65;9.05;;;;;;;;;;5092525;28;20495;-53
2024/03/11 03:35:31;;;;;;;20.42;9.48;;;;;;;;;;5092639;28;20530;-54
2024/03/11 03:37:57;;;;;;;20.92;9.93;;;;;;;;;;5085807;28;20032;-53
2024/03/11 03:40:23;;;;;;;21.20;10.02;;;;;;;;;;5095451;28;20069;-55
2024/03/11 03:42:49;;;;;;;17.05;9.98;;;;;;;;;;5096609;28;20028;-53
2024/03/11 03:45:17;;;;;;;18.15;10.50;;;;;;;;;;5091156;28;20109;-54
2024/03/11 03:47:43;;;;;;;20.60;10.45;;;;;;;;;;5092785;28;20028;-54
2024/03/11 03:50:10;;;;;;;17.83;9.13;;;;;;;;;;5092516;28;20039;-55
2024/03/11 03:52:42;;;;;;;21.25;10.02;;;;;;;;;;5092224;28;20039;-54
2024/03/11 03:55:11;;;;;;;20.50;10.05;;;;;;;;;;5092442;28;20130;-53
2024/03/11 03:57:37;;;;;;;20.40;10.88;;;;;;;;;;5091186;28;20130;-54
2024/03/11 04:00:05;;;;;;;19.33;9.57;;;;;;;;;;5084002;28;20028;-54
2024/03/11 04:02:31;;;;;;;19.20;9.70;;;;;;;;;;5091085;28;20084;-52
2024/03/11 04:05:02;;;;;;;18.23;9.93;;;;;;;;;;5091596;28;20043;-55
2024/03/11 04:07:28;;;;;;;19.58;9.82;;;;;;;;;;5092207;28;20036;-54
2024/03/11 04:09:54;;;;;;;21.25;10.63;;;;;;;;;;5078343;28;20039;-56
2024/03/11 04:12:20;;;;;;;22.42;10.68;;;;;;;;;;5100632;28;20032;-54
2024/03/11 04:14:46;;;;;;;23.73;10.10;;;;;;;;;;5092306;28;20609;-55
2024/03/11 04:17:12;;;;;;;21.38;9.82;;;;;;;;;;5091402;28;20032;-54
2024/03/11 04:19:39;;;;;;;19.48;9.93;;;;;;;;;;5091780;28;20059;-53
2024/03/11 04:22:06;;;;;;;22.42;10.32;;;;;;;;;;5091911;28;20467;-54
2024/03/11 04:24:32;;;;;;;17.38;10.23;;;;;;;;;;5093381;28;20020;-54
2024/03/11 04:26:59;;;;;;;23.90;9.88;;;;;;;;;;5090066;28;20032;-57
2024/03/11 04:29:27;;;;;;;16.65;9.60;;;;;;;;;;5079900;28;20062;-58
2024/03/11 04:31:53;;;;;;;19.05;10.63;;;;;;;;;;5077393;28;20028;-58
2024/03/11 04:34:21;;;;;;;18.75;9.77;;;;;;;;;;5076159;28;20182;-59
2024/03/11 04:36:47;;;;;;;17.83;9.77;;;;;;;;;;5112187;28;20027;-59
2024/03/11 04:39:14;;;;;;;19.55;10.32;;;;;;;;;;5112216;28;20056;-59
2024/03/11 04:41:42;;;;;;;19.50;10.45;;;;;;;;;;5098427;28;20085;-59
2024/03/11 04:44:08;;;;;;;20.70;9.93;;;;;;;;;;5091725;28;20044;-63
2024/03/11 04:46:34;;;;;;;19.90;10.38;;;;;;;;;;5091015;28;20460;-59
2024/03/11 04:48:59;;;;;;;20.13;10.00;;;;;;;;;;5091901;28;20035;-59
2024/03/11 04:51:25;;;;;;;20.88;10.32;;;;;;;;;;5088535;28;20025;-58
2024/03/11 04:53:51;;;;;;;19.55;10.35;;;;;;;;;;5091362;28;20032;-58
2024/03/11 04:56:18;;;;;;;15.88;9.18;;;;;;;;;;5086277;28;20021;-59
2024/03/11 04:58:44;;;;;;;18.38;9.70;;;;;;;;;;5090707;28;20032;-59
2024/03/11 05:01:10;;;;;;;20.65;11.13;;;;;;;;;;5084371;28;20021;-59
2024/03/11 05:03:36;;;;;;;19.40;10.43;;;;;;;;;;5078696;28;20384;-59
2024/03/11 05:06:02;;;;;;;18.45;10.40;;;;;;;;;;5090645;28;20032;-59
2024/03/11 05:08:28;;;;;;;20.20;9.80;;;;;;;;;;5091056;28;20110;-59
2024/03/11 05:10:54;;;;;;;23.90;11.23;;;;;;;;;;5088227;28;20028;-59
2024/03/11 05:13:21;;;;;;;19.35;9.80;;;;;;;;;;5090573;28;20523;-59
2024/03/11 05:15:47;;;;;;;18.60;10.05;;;;;;;;;;5089518;28;20089;-59
2024/03/11 05:18:15;;;;;;;18.00;10.05;;;;;;;;;;5091299;28;20052;-59
2024/03/11 05:20:41;;;;;;;19.83;10.50;;;;;;;;;;5086858;28;20099;-59
2024/03/11 05:23:07;;;;;;;16.67;10.43;;;;;;;;;;5087840;28;20103;-59
2024/03/11 05:25:33;;;;;;;18.45;9.48;;;;;;;;;;5091682;28;20081;-59
2024/03/11 05:27:59;;;;;;;18.70;9.80;;;;;;;;;;5092895;28;20028;-59
2024/03/11 05:30:27;;;;;;;20.33;10.27;;;;;;;;;;5093403;28;20028;-59
2024/03/11 05:32:53;;;;;;;20.20;9.40;;;;;;;;;;5092609;28;20032;-59
2024/03/11 05:35:19;;;;;;;20.90;10.80;;;;;;;;;;5097484;28;20027;-59
2024/03/11 05:37:45;;;;;;;18.95;9.93;;;;;;;;;;5091221;28;20099;-56
2024/03/11 05:40:12;;;;;;;21.27;10.88;;;;;;;;;;5083565;28;20028;-57
2024/03/11 05:42:41;;;;;;;21.00;9.23;;;;;;;;;;5088925;28;20505;-57
2024/03/11 05:45:08;;;;;;;17.60;9.80;;;;;;;;;;5093370;28;20099;-56
2024/03/11 05:47:34;;;;;;;20.27;9.35;;;;;;;;;;5088385;28;20365;-55
2024/03/11 05:50:02;;;;;;;21.48;10.23;;;;;;;;;;5095037;28;20024;-56
2024/03/11 05:52:28;;;;;;;23.38;10.73;;;;;;;;;;5089520;28;20047;-57
2024/03/11 05:54:56;;;;;;;23.13;10.10;;;;;;;;;;5090160;28;20027;-56
2024/03/11 05:57:25;;;;;;;20.02;9.55;;;;;;;;;;5093091;28;20024;-56
2024/03/11 05:59:51;;;;;;;17.27;9.75;;;;;;;;;;5088109;28;20108;-57
2024/03/11 06:02:17;;;;;;;19.73;10.15;;;;;;;;;;5085593;28;20428;-57
2024/03/11 06:04:45;;;;;;;16.40;9.40;;;;;;;;;;5090819;28;20032;-56
2024/03/11 06:07:11;;;;;;;19.55;9.93;;;;;;;;;;5088689;28;20023;-55
2024/03/11 06:09:37;;;;;;;19.95;10.68;;;;;;;;;;5090995;28;20391;-57
2024/03/11 06:12:05;;;;;;;17.48;9.45;;;;;;;;;;5090978;28;20031;-57
2024/03/11 06:14:31;;;;;;;19.42;9.23;;;;;;;;;;5087587;28;20148;-56
2024/03/11 06:16:58;;;;;;;17.10;9.07;;;;;;;;;;5091589;28;20031;-56
2024/03/11 06:19:24;;;;;;;17.70;9.85;;;;;;;;;;5089869;28;20087;-56
2024/03/11 06:21:53;;;;;;;16.27;9.80;;;;;;;;;;5093090;28;20027;-56
2024/03/11 06:24:19;;;;;;;17.48;9.48;;;;;;;;;;5088729;28;20503;-55
2024/03/11 06:26:46;;;;;;;20.67;9.52;;;;;;;;;;5084944;28;20020;-56
2024/03/11 06:29:12;;;;;;;19.83;9.30;;;;;;;;;;5087621;28;20035;-56
2024/03/11 06:31:38;;;;;;;16.27;9.75;;;;;;;;;;5086942;28;20053;-56
2024/03/11 06:34:06;;;;;;;23.42;10.05;;;;;;;;;;5090144;28;20039;-55
2024/03/11 06:36:32;;;;;;;21.15;10.25;;;;;;;;;;5093444;28;20177;-56
2024/03/11 06:38:58;;;;;;;17.77;9.95;;;;;;;;;;5092509;28;20047;-55
2024/03/11 06:41:25;;;;;;;18.75;9.90;;;;;;;;;;5092348;28;20016;-55
2024/03/11 06:43:51;;;;;;;19.40;9.80;;;;;;;;;;5093236;28;20028;-56
2024/03/11 06:46:18;;;;;;;17.80;9.85;;;;;;;;;;5089794;28;20039;-54
2024/03/11 06:48:44;;;;;;;18.05;10.32;;;;;;;;;;5094076;28;20045;-58
2024/03/11 06:51:12;;;;;;;22.02;10.90;;;;;;;;;;5082949;28;20111;-58
2024/03/11 06:53:38;;;;;;;17.92;10.07;;;;;;;;;;5083830;28;20020;-58
2024/03/11 06:56:07;;;;;;;21.73;10.23;;;;;;;;;;5088479;28;20116;-56
2024/03/11 06:58:38;;;;;;;22.40;9.63;;;;;;;;;;5092082;28;20052;-57
2024/03/11 07:01:04;;;;;;;15.93;9.27;;;;;;;;;;5085567;28;20024;-57
2024/03/11 07:03:30;;;;;;;16.42;9.20;;;;;;;;;;5083847;28;20020;-58
2024/03/11 07:05:58;;;;;;;18.20;8.93;;;;;;;;;;5085259;28;20024;-58
2024/03/11 07:08:24;;;;;;;16.98;9.23;;;;;;;;;;5089896;28;20060;-57
2024/03/11 07:10:50;;;;;;;19.80;10.02;;;;;;;;;;5086899;28;20036;-58
2024/03/11 07:13:16;;;;;;;18.63;9.88;;;;;;;;;;5088113;28;20114;-58
2024/03/11 07:15:42;;;;;;;23.83;11.10;;;;;;;;;;5084764;28;20032;-58
2024/03/11 07:18:09;;;;;;;16.98;9.50;;;;;;;;;;5089002;28;20471;-58
2024/03/11 07:20:36;;;;;;;20.70;10.13;;;;;;;;;;5087802;28;20028;-59
2024/03/11 07:23:03;;;;;;;18.13;9.57;;;;;;;;;;5085829;28;20073;-58
2024/03/11 07:25:29;;;;;;;20.40;9.68;;;;;;;;;;5088810;28;20028;-58
2024/03/11 07:27:55;;;;;;;19.13;9.65;;;;;;;;;;5091742;28;20096;-58
2024/03/11 07:30:24;;;;;;;17.02;8.98;;;;;;;;;;5091102;28;20035;-58
2024/03/11 07:33:03;;;;;;;18.63;9.18;;;;;;;;;;5090958;28;20024;-58
2024/03/11 07:35:31;;;;;;;17.40;8.90;;;;;;;;;;5101875;28;20068;-59
2024/03/11 07:37:57;;;;;;;18.20;9.80;;;;;;;;;;5091475;28;20020;-59
2024/03/11 07:40:23;;;;;;;17.70;9.82;;;;;;;;;;5089264;28;20345;-57
2024/03/11 07:42:51;;;;;;;18.45;9.52;;;;;;;;;;5091267;28;20454;-59
2024/03/11 07:45:20;;;;;;;17.10;10.00;;;;;;;;;;5089398;28;20431;-59
2024/03/11 07:47:46;;;;;;;19.60;9.77;;;;;;;;;;5084740;28;20588;-57
2024/03/11 07:50:13;;;;;;;19.50;10.18;;;;;;;;;;5088332;28;20051;-55
2024/03/11 07:52:39;;;;;;;21.52;10.02;;;;;;;;;;5090883;28;20020;-58
2024/03/11 07:55:07;;;;;;;20.83;10.43;;;;;;;;;;5091772;28;20024;-59
2024/03/11 07:57:35;;;;;;;20.08;11.00;;;;;;;;;;5090195;28;20020;-55
2024/03/11 08:00:03;;;;;;;15.43;10.00;;;;;;;;;;5091640;28;20028;-54
2024/03/11 08:02:29;;;;;;;15.23;9.05;;;;;;;;;;5090098;28;20046;-53
2024/03/11 08:04:55;;;;;;;18.15;9.50;;;;;;;;;;5087356;28;20028;-55
2024/03/11 08:07:22;;;;;;;21.92;10.75;;;;;;;;;;5085874;28;20073;-56
2024/03/11 08:09:48;;;;;;;22.27;10.73;;;;;;;;;;5096075;28;20046;-53
2024/03/11 08:12:14;;;;;;;21.20;10.73;;;;;;;;;;5090659;28;20406;-56
2024/03/11 08:14:40;;;;;;;16.98;9.80;;;;;;;;;;5090885;28;20480;-54
2024/03/11 08:17:06;;;;;;;20.30;10.93;;;;;;;;;;5090477;28;20061;-53
2024/03/11 08:19:33;;;;;;;17.13;10.50;;;;;;;;;;5090486;28;20050;-52
2024/03/11 08:21:59;;;;;;;19.70;10.30;;;;;;;;;;5091084;28;20024;-54
2024/03/11 08:24:25;;;;;;;18.48;9.63;;;;;;;;;;5090358;28;20050;-55
2024/03/11 08:26:51;;;;;;;23.88;11.30;;;;;;;;;;5090987;28;20024;-55
2024/03/11 08:29:17;;;;;;;23.88;10.70;;;;;;;;;;5090887;28;20027;-55
2024/03/11 08:31:47;;;;;;;19.83;10.70;;;;;;;;;;5090347;28;20459;-54
2024/03/11 08:34:13;;;;;;;21.92;11.07;;;;;;;;;;5090232;28;20074;-56
2024/03/11 08:36:42;;;;;;;21.25;11.10;;;;;;;;;;5096554;28;20032;-57
2024/03/11 08:39:10;;;;;;;18.90;11.10;;;;;;;;;;5099786;28;20063;-55
2024/03/11 08:41:37;;;;;;;22.98;11.90;;;;;;;;;;5086818;28;20492;-54
2024/03/11 08:44:03;;;;;;;21.88;11.05;;;;;;;;;;5085029;28;20507;-54
2024/03/11 08:46:29;;;;;;;22.20;10.75;;;;;;;;;;5086075;28;20464;-55
2024/03/11 08:48:57;;;;;;;23.50;12.05;;;;;;;;;;5089090;28;20450;-55
2024/03/11 08:51:23;;;;;;;20.33;10.98;;;;;;;;;;5088903;28;20056;-54
2024/03/11 08:53:49;;;;;;;24.73;11.52;;;;;;;;;;5090506;28;20043;-54
2024/03/11 08:56:15;;;;;;;23.90;11.88;;;;;;;;;;5090687;28;20027;-53
2024/03/11 08:58:41;;;;;;;29.25;13.07;;;;;;;;;;5090519;28;20024;-54
2024/03/11 09:01:07;;;;;;;21.23;11.82;;;;;;;;;;5090829;28;20024;-54
2024/03/11 09:03:33;;;;;;;27.33;13.15;;;;;;;;;;5091950;28;20086;-54
2024/03/11 09:05:59;;;;;;;24.88;12.63;;;;;;;;;;5093967;28;20097;-53
2024/03/11 09:08:26;;;;;;;26.85;14.63;;;;;;;;;;5094585;28;20034;-59
2024/03/11 09:10:52;;;;;;;28.98;15.63;;;;;;;;;;5094606;28;20020;-59
2024/03/11 09:13:19;;;;;;;27.25;16.02;;;;;;;;;;5093780;28;20068;-59
2024/03/11 09:15:46;;;;;;;25.33;15.52;;;;;;;;;;5094192;28;20028;-59
2024/03/11 09:18:13;;;;;;;26.60;15.45;;;;;;;;;;5092546;28;20048;-59
2024/03/11 09:20:39;;;;;;;27.98;15.55;;;;;;;;;;5093920;28;20036;-59
2024/03/11 09:23:07;;;;;;;26.08;15.07;;;;;;;;;;5091336;28;20020;-59
2024/03/11 09:25:33;;;;;;;27.15;16.13;;;;;;;;;;5093928;28;20498;-59
2024/03/11 09:28:03;;;;;;;26.17;15.10;;;;;;;;;;5093864;28;20016;-59
2024/03/11 09:30:31;;;;;;;26.25;15.75;;;;;;;;;;5093752;28;20016;-59
2024/03/11 09:32:57;;;;;;;25.83;16.17;;;;;;;;;;5091710;28;20471;-58
2024/03/11 09:35:23;;;;;;;25.92;15.35;;;;;;;;;;5099230;28;20088;-59
2024/03/11 09:37:53;;;;;;;28.05;17.10;;;;;;;;;;5093387;28;20024;-59
2024/03/11 09:40:20;;;;;;;23.85;15.57;;;;;;;;;;5093657;28;20427;-58
2024/03/11 09:42:49;;;;;;;26.23;15.88;;;;;;;;;;5088678;28;20035;-57
2024/03/11 09:45:17;;;;;;;29.58;16.67;;;;;;;;;;5090780;28;20027;-57
2024/03/11 09:47:44;;;;;;;24.88;14.93;;;;;;;;;;5089051;28;20027;-59
2024/03/11 09:50:14;;;;;;;23.38;15.57;;;;;;;;;;5092834;28;20031;-58
2024/03/11 09:52:44;;;;;;;28.10;15.80;;;;;;;;;;5093520;28;20039;-59
2024/03/11 09:55:10;;;;;;;28.17;15.73;;;;;;;;;;5088281;28;20483;-59
2024/03/11 09:57:37;;;;;;;27.48;16.08;;;;;;;;;;5093457;28;20074;-58
2024/03/11 10:00:12;;;;;;;30.80;16.70;;;;;;;;;;5092641;28;20114;-59
2024/03/11 10:02:39;;;;;;;28.17;16.05;;;;;;;;;;5080298;28;20025;-59
2024/03/11 10:05:08;;;;;;;28.23;16.20;;;;;;;;;;5088430;28;20043;-59
2024/03/11 10:07:34;;;;;;;25.30;14.60;;;;;;;;;;5088218;28;20544;-59
2024/03/11 10:10:08;;;;;;;25.27;15.20;;;;;;;;;;5090108;28;20040;-58
2024/03/11 10:12:49;;;;;;;24.83;14.10;;;;;;;;;;5087177;28;20051;-59
2024/03/11 10:15:27;;;;;;;24.80;13.63;;;;;;;;;;5084203;28;20037;-59
2024/03/11 10:17:54;;;;;;;20.67;13.07;;;;;;;;;;5091757;28;20028;-55
2024/03/11 10:20:24;;;;;;;22.70;13.98;;;;;;;;;;5081912;28;20452;-55
2024/03/11 10:22:50;;;;;;;23.95;13.60;;;;;;;;;;5089239;28;20025;-55
2024/03/11 10:25:23;;;;;;;19.90;12.05;;;;;;;;;;5089823;28;20060;-55
2024/03/11 10:27:49;;;;;;;21.30;12.63;;;;;;;;;;5090566;28;20489;-56
2024/03/11 10:30:19;;;;;;;19.65;12.93;;;;;;;;;;5093677;28;20032;-55
2024/03/11 10:32:51;;;;;;;20.70;13.00;;;;;;;;;;5087248;28;20028;-54
2024/03/11 10:35:20;;;;;;;19.00;12.15;;;;;;;;;;5098168;28;20043;-55
2024/03/11 10:37:46;;;;;;;22.60;12.80;;;;;;;;;;5092975;28;20031;-56
2024/03/11 10:40:18;;;;;;;19.15;11.52;;;;;;;;;;5092865;28;20092;-55
2024/03/11 10:42:52;;;;;;;21.25;12.65;;;;;;;;;;5091830;28;20048;-55
2024/03/11 10:45:35;;;;;;;21.95;12.13;;;;;;;;;;5091508;28;20169;-57
2024/03/11 10:48:01;;;;;;;20.75;12.20;;;;;;;;;;5081744;28;20484;-55
2024/03/11 10:50:32;;;;;;;19.80;12.25;;;;;;;;;;5091822;28;20485;-55
2024/03/11 10:52:58;;;;;;;19.95;11.98;;;;;;;;;;5085302;28;20028;-56
2024/03/11 10:55:32;;;;;;;20.80;12.38;;;;;;;;;;5085598;28;20501;-54
2024/03/11 10:57:58;;;;;;;;;;;;;;;;;;5080697;28;20024;-55
2024/03/11 11:00:24;;;;;;;18.67;12.23;;;;;;;;;;5080710;28;19911;-55
2024/03/11 11:02:55;;;;;;;18.05;11.45;;;;;;;;;;5090555;28;20021;-55
2024/03/11 11:05:24;;;;;;;18.63;11.93;;;;;;;;;;5078828;28;20095;-55
2024/03/11 11:07:53;;;;;;;18.67;11.15;;;;;;;;;;5090913;28;20433;-55
2024/03/11 11:10:20;;;;;;;18.08;11.30;;;;;;;;;;5086031;28;20070;-56
2024/03/11 11:12:52;;;;;;;17.23;11.48;;;;;;;;;;5081998;28;20032;-56
2024/03/11 11:15:20;;;;;;;17.55;11.07;;;;;;;;;;5088509;28;20093;-57
2024/03/11 11:17:48;;;;;;;18.30;12.02;;;;;;;;;;5087260;28;20507;-56
2024/03/11 11:20:29;;;;;;;17.23;11.38;;;;;;;;;;5082005;28;20100;-57
2024/03/11 11:23:02;;;;;;;18.52;12.75;;;;;;;;;;5089896;28;20028;-56
2024/03/11 11:25:39;;;;;;;20.42;12.60;;;;;;;;;;5089707;28;20133;-55
2024/03/11 11:28:05;;;;;;;22.02;13.77;;;;;;;;;;5092527;28;20057;-59
2024/03/11 11:30:31;;;;;;;20.05;12.85;;;;;;;;;;5090976;28;20103;-59
2024/03/11 11:32:57;;;;;;;20.27;12.98;;;;;;;;;;5088314;28;20040;-58
2024/03/11 11:35:36;;;;;;;19.17;12.45;;;;;;;;;;5087912;28;20063;-60
2024/03/11 11:38:29;;;;;;;20.45;12.60;;;;;;;;;;5089831;28;20028;-59
2024/03/11 11:40:56;;;;;;;;;;;;;;;;;;5094231;28;20386;-59
2024/03/11 11:43:41;;;;;;;18.20;11.18;;;;;;;;;;5089631;28;20276;-59
2024/03/11 11:46:09;;;;;;;18.48;11.77;;;;;;;;;;5092184;28;20093;-59
2024/03/11 11:48:37;;;;;;;18.50;12.30;;;;;;;;;;5090714;28;20032;-60
2024/03/11 11:51:03;;;;;;;18.92;12.07;;;;;;;;;;5094524;28;20032;-59
2024/03/11 11:53:36;;;;;;;21.15;13.10;;;;;;;;;;5090452;28;20067;-59
2024/03/11 11:56:03;;;;;;;23.98;12.32;;;;;;;;;;5091191;28;20111;-59
2024/03/11 11:58:30;;;;;;;19.45;12.07;;;;;;;;;;5088594;28;20037;-59
2024/03/11 12:01:01;;;;;;;19.30;11.73;;;;;;;;;;5085582;28;20024;-59
2024/03/11 12:03:30;;;;;;;18.25;11.70;;;;;;;;;;5084637;28;20383;-59
2024/03/11 12:06:17;;;;;;;19.63;11.55;;;;;;;;;;5084810;28;20111;-60
2024/03/11 12:08:43;;;;;;;16.63;10.23;;;;;;;;;;5085482;28;20490;-59
2024/03/11 12:11:11;;;;;;;18.92;10.43;;;;;;;;;;5091122;28;20103;-58
2024/03/11 12:13:38;;;;;;;20.27;11.45;;;;;;;;;;5081941;28;20122;-58
2024/03/11 12:16:08;;;;;;;16.48;9.70;;;;;;;;;;5086532;28;20432;-59
2024/03/11 12:18:34;;;;;;;15.40;9.63;;;;;;;;;;5084407;28;20399;-58
2024/03/11 12:21:05;;;;;;;15.80;9.57;;;;;;;;;;5086798;28;20031;-59
2024/03/11 12:23:31;;;;;;;13.52;8.55;;;;;;;;;;5080950;28;20023;-58
2024/03/11 12:25:57;;;;;;;15.32;9.10;;;;;;;;;;5082358;28;20050;-59
2024/03/11 12:28:24;;;;;;;12.32;8.38;;;;;;;;;;5085291;28;20024;-60
2024/03/11 12:30:51;;;;;;;13.88;8.18;;;;;;;;;;5090504;28;20660;-59
2024/03/11 12:33:17;;;;;;;10.95;7.03;;;;;;;;;;5078279;28;20021;-59
2024/03/11 12:35:43;;;;;;;12.00;6.65;;;;;;;;;;5084423;28;20021;-59
2024/03/11 12:38:10;;;;;;;9.77;6.78;;;;;;;;;;5088831;28;20032;-57
2024/03/11 12:40:42;;;;;;;13.00;7.75;;;;;;;;;;5083830;28;20028;-59
2024/03/11 12:43:22;;;;;;;10.57;6.85;;;;;;;;;;5091353;28;20066;-56
2024/03/11 12:46:02;;;;;;;9.60;6.30;;;;;;;;;;5093393;28;20024;-60
2024/03/11 12:48:29;;;;;;;9.68;6.00;;;;;;;;;;5086669;28;20024;-59
2024/03/11 12:50:56;;;;;;;10.18;6.10;;;;;;;;;;5080079;28;20024;-59
2024/03/11 12:53:24;;;;;;;8.85;6.03;;;;;;;;;;5093437;28;20031;-59
2024/03/11 12:56:00;;;;;;;7.03;4.40;;;;;;;;;;5086288;28;20028;-59
2024/03/11 12:58:26;;;;;;;8.20;5.32;;;;;;;;;;5094274;28;20027;-59
2024/03/11 13:01:04;;;;;;;9.07;5.38;;;;;;;;;;5091469;28;20487;-59
2024/03/11 13:03:31;;;;;;;7.63;4.55;;;;;;;;;;5086655;28;20032;-57
2024/03/11 13:06:01;;;;;;;12.57;5.13;;;;;;;;;;5091802;28;20098;-60
2024/03/11 13:08:28;;;;;;;7.47;4.25;;;;;;;;;;5090189;28;20048;-58
2024/03/11 13:11:08;;;;;;;5.47;3.83;;;;;;;;;;5089117;28;20108;-59
2024/03/11 13:13:37;;;;;;;7.07;3.70;;;;;;;;;;5093557;28;20035;-59
2024/03/11 13:16:04;;;;;;;5.32;3.70;;;;;;;;;;5094727;28;20487;-59
2024/03/11 13:18:30;;;;;;;5.30;3.55;;;;;;;;;;5094361;28;20048;-57
2024/03/11 13:21:05;;;;;;;5.10;3.20;;;;;;;;;;5088959;28;20017;-60
2024/03/11 13:23:31;;;;;;;4.75;2.90;;;;;;;;;;5085967;28;20036;-56
2024/03/11 13:25:57;;;;;;;5.65;3.50;;;;;;;;;;5090949;28;20028;-60
2024/03/11 13:28:23;;;;;;;4.32;3.17;;;;;;;;;;5089769;28;20029;-57
2024/03/11 13:30:49;;;;;;;4.07;2.78;;;;;;;;;;5093989;28;20028;-59
2024/03/11 13:33:15;;;;;;;5.10;3.15;;;;;;;;;;5093092;28;20016;-60
2024/03/11 13:35:43;;;;;;;4.95;3.17;;;;;;;;;;5091801;28;20505;-58
2024/03/11 13:38:09;;;;;;;5.32;3.40;;;;;;;;;;5087020;28;20032;-59
2024/03/11 13:40:35;;;;;;;10.10;4.10;;;;;;;;;;5086674;28;20024;-59
2024/03/11 13:43:02;;;;;;;4.32;3.08;;;;;;;;;;5091894;28;20031;-58
2024/03/11 13:45:28;;;;;;;4.03;2.90;;;;;;;;;;5085444;28;20021;-60
2024/03/11 13:47:56;;;;;;;4.00;2.60;;;;;;;;;;5092457;28;20108;-60
2024/03/11 13:50:24;;;;;;;4.30;2.42;;;;;;;;;;5093034;28;20039;-60
2024/03/11 13:52:51;;;;;;;3.80;2.40;;;;;;;;;;5092670;28;20032;-60
2024/03/11 13:55:17;;;;;;;3.90;2.60;;;;;;;;;;5089194;28;20065;-59
2024/03/11 13:57:44;;;;;;;3.47;2.05;;;;;;;;;;5090488;28;20368;-60
2024/03/11 14:00:17;;;;;;;1.77;1.40;;;;;;;;;;5083321;28;20085;-60
2024/03/11 14:02:43;;;;;;;1.85;1.02;;;;;;;;;;5092355;28;20552;-60
2024/03/11 14:05:12;;;;;;;1.17;0.70;;;;;;;;;;5085979;28;20048;-60
2024/03/11 14:07:38;;;;;;;0.90;0.60;;;;;;;;;;5087432;28;20145;-60
2024/03/11 14:10:06;;;;;;;1.88;0.77;;;;;;;;;;5092455;28;20479;-60
2024/03/11 14:12:32;;;;;;;1.08;0.60;;;;;;;;;;5086042;28;20032;-60
2024/03/11 14:14:58;;;;;;;2.17;0.80;;;;;;;;;;5092670;28;20039;-60
2024/03/11 14:17:24;;;;;;;0.60;0.50;;;;;;;;;;5086425;28;20050;-60
2024/03/11 14:19:50;;;;;;;0.90;0.50;;;;;;;;;;5080252;28;20078;-60
2024/03/11 14:22:16;;;;;;;0.80;0.50;;;;;;;;;;5091387;28;20391;-60
2024/03/11 14:24:42;;;;;;;1.10;0.60;;;;;;;;;;5093056;28;20024;-59
2024/03/11 14:27:09;;;;;;;2.95;0.73;;;;;;;;;;5091758;28;20048;-60